This is the latest recevied weather packets stored in our database for station/object IZ1GCT. If no packets are shown the sender has not sent any weather packets the latest 1 day(s).
| Time | Temp. | Humidity | Pressure | Rain* | Wind** | Luminosity | Snow |
|---|---|---|---|---|---|---|---|
| 1778010357 | 12.22° C | 91% | 1015.4 hPa | 0 mm | 0.89 m/s, 158° | - | - |
| 1778010056 | 12.22° C | 91% | 1015.2 hPa | 0 mm | 0 m/s | - | - |
| 1778009757 | 12.22° C | 91% | 1015.2 hPa | 0 mm | 0.45 m/s, 158° | - | - |
| 1778009457 | 12.22° C | 90% | 1015.1 hPa | 0 mm | 0.45 m/s, 158° | - | - |
| 1778009156 | 12.22° C | 90% | 1015.2 hPa | 0 mm | 0.45 m/s, 158° | - | - |
| 1778008857 | 12.22° C | 88% | 1015.2 hPa | 0 mm | 0.45 m/s, 158° | - | - |
| 1778008556 | 12.78° C | 84% | 1015.2 hPa | 0 mm | 0 m/s | - | - |
| 1778008256 | 12.78° C | 84% | 1015.2 hPa | 0 mm | 0.45 m/s, 158° | - | - |
| 1778007957 | 12.78° C | 83% | 1015.2 hPa | 0 mm | 0 m/s | - | - |
| 1778007656 | 12.78° C | 83% | 1015.2 hPa | 0 mm | 0 m/s | - | - |
| 1778007358 | 12.78° C | 83% | 1015.2 hPa | 0 mm | 0.45 m/s, 158° | - | - |
| 1778007057 | 12.78° C | 82% | 1015.1 hPa | 0 mm | 0.89 m/s, 158° | - | - |
| 1778006756 | 12.78° C | 81% | 1015.1 hPa | 0 mm | 0.45 m/s, 158° | - | - |
| 1778006456 | 12.78° C | 81% | 1015 hPa | 0 mm | 0.45 m/s, 158° | - | - |
| 1778006157 | 13.33° C | 81% | 1015.1 hPa | 0 mm | 0.45 m/s, 158° | - | - |
| 1778005857 | 13.33° C | 80% | 1015.1 hPa | 0 mm | 0 m/s | - | - |
| 1778005556 | 13.33° C | 80% | 1015 hPa | 0 mm | 0 m/s | - | - |
| 1778005257 | 13.33° C | 80% | 1015.1 hPa | 0 mm | 0 m/s | - | - |
| 1778004956 | 11.67° C | 78% | 1013.6 hPa | 0 mm | 0 m/s | - | - |
| 1778004658 | 13.33° C | 78% | 1015 hPa | 0 mm | 0 m/s | - | - |
| 1778004357 | 13.33° C | 78% | 1015 hPa | 0 mm | 0 m/s | - | - |
| 1778004057 | 13.33° C | 78% | 1014.8 hPa | 0 mm | 0 m/s | - | - |
| 1778003756 | 13.33° C | 78% | 1014.9 hPa | 0 mm | 0 m/s | - | - |
| 1778003458 | 13.89° C | 76% | 1014.9 hPa | 0 mm | 0 m/s | - | - |
| 1778003157 | 13.89° C | 75% | 1014.9 hPa | 0 mm | 0 m/s | - | - |
* Rain latest hour (hover to see other rain measurements)
** Current wind speed in m/s (hover to see current wind gust speed)